All
Carlton Hill Airport CRY Weather
There is no TAF data available at CRY. Showing TAF data for YPKU (23 mi SE).
KNX Terminal Area Forecast (no data for CRY)
| Date | Time (AWST) | Flight Rules | Wind Dir. | Speed | Type | Height AGL (ft) | Visibility | Remarks | ||||||
|---|---|---|---|---|---|---|---|---|---|---|---|---|---|---|
| 01-Sep | 21:00 | VFR | 120° | 6 kt | Clouds and Visibility are OK | >= 6 miles | ||||||||
| 01-Sep | 20:00 | VFR | 120° | 6 kt | Clouds and Visibility are OK | >= 6 miles | ||||||||
| 01-Sep | 19:00 | VFR | 120° | 6 kt | Clouds and Visibility are OK | >= 6 miles | ||||||||
| 01-Sep | 18:00 | VFR | 120° | 6 kt | Clouds and Visibility are OK | >= 6 miles | ||||||||
| 01-Sep | 17:00 | VFR | 120° | 6 kt | Clouds and Visibility are OK | >= 6 miles | ||||||||
| 01-Sep | 16:00 | VFR | 120° | 6 kt | Clouds and Visibility are OK | >= 6 miles | ||||||||
| 01-Sep | 15:00 | VFR | 80° | 10 kt | Clouds and Visibility are OK | >= 6 miles | ||||||||
| 01-Sep | 14:00 | VFR | 80° | 10 kt | Clouds and Visibility are OK | >= 6 miles | ||||||||
| 01-Sep | 13:00 | VFR | 80° | 10 kt | Clouds and Visibility are OK | >= 6 miles | ||||||||
| 01-Sep | 12:00 | VFR | 80° | 10 kt | Clouds and Visibility are OK | >= 6 miles | ||||||||
| 01-Sep | 11:00 | VFR | 80° | 10 kt | Clouds and Visibility are OK | >= 6 miles | ||||||||
There is no METAR data available at CRY. Showing METAR data for YPKU (23 mi SE).
Recent KNX METAR history (no data for CRY)
| Date | Time (AWST) | Flight Rules | Wind Dir. | Speed | Type | Height AGL (ft) | Visibility | Temp (°C) | Temp (°F) | Dew Point (°C) | Dew Point (°F) | Rel. Humid. | Pressure | Density Altitude | Remarks |
|---|---|---|---|---|---|---|---|---|---|---|---|---|---|---|---|
| 01-Sep | 11:30 | VFR | 90° | 13 kt | 10000 meters | 34° | 93° | 9° | 48° | 22% | 1017 mb | 2,313 ft | |||
| 01-Sep | 11:00 | VFR | 70° | 13 kt | 10000 meters | 33° | 91° | 8° | 46° | 21% | 1018 mb | 2,163 ft | |||
| 01-Sep | 10:00 | VFR | 130° | 12 kt | 10000 meters | 33° | 91° | 8° | 46° | 21% | 1019 mb | 2,134 ft | |||
| 01-Sep | 09:00 | VFR | 130° | 10 kt | 10000 meters | 31° | 87° | 9° | 48° | 26% | 1019 mb | 1,894 ft | |||
| 01-Sep | 08:30 | VFR | 130° | 8 kt | 10000 meters | 30° | 86° | 9° | 48° | 27% | 1019 mb | 1,774 ft | |||
| 01-Sep | 08:00 | VFR | 130° | 7 kt | 10000 meters | 29° | 84° | 9° | 48° | 29% | 1019 mb | 1,654 ft | |||
| 01-Sep | 07:30 | VFR | 130° | 6 kt | 10000 meters | 28° | 82° | 10° | 50° | 32% | 1019 mb | 1,534 ft | |||
| 01-Sep | 07:00 | VFR | 180° | 4 kt | 10000 meters | 25° | 77° | 13° | 55° | 47% | 1019 mb | 1,174 ft | |||
| 01-Sep | 06:58 | VFR | 190° | 4 kt | 10000 meters | 25° | 77° | 13° | 55° | 47% | 1019 mb | 1,174 ft | |||
| 01-Sep | 06:30 | VFR | 230° | 1 kt | 10000 meters | 20° | 68° | 16° | 60° | 78% | 1019 mb | 574 ft | |||
| 01-Sep | 06:00 | VFR | 300° | 1 kt | 10000 meters | 16° | 60° | 13° | 55° | 82% | 1019 mb | 94 ft | |||
| 01-Sep | 05:30 | VFR | 30° | 2 kt | 10000 meters | 17° | 62° | 14° | 57° | 82% | 1018 mb | 243 ft | |||
| 01-Sep | 05:00 | VFR | 10° | 1 kt | 10000 meters | 16° | 60° | 14° | 57° | 88% | 1018 mb | 123 ft | |||
| 01-Sep | 04:30 | VFR | Calm | 10000 meters | 17° | 62° | 14° | 57° | 82% | 1017 mb | 273 ft | ||||
| 01-Sep | 04:00 | VFR | Calm | 10000 meters | 17° | 62° | 14° | 57° | 82% | 1017 mb | 273 ft | ||||
| 01-Sep | 03:30 | VFR | Calm | 10000 meters | 17° | 62° | 14° | 57° | 82% | 1017 mb | 273 ft | ||||
| 01-Sep | 03:00 | VFR | Calm | 10000 meters | 17° | 62° | 13° | 55° | 77% | 1017 mb | 273 ft | ||||
| 01-Sep | 02:30 | VFR | 290° | 2 kt | 10000 meters | 17° | 62° | 13° | 55° | 77% | 1017 mb | 273 ft | |||
| 01-Sep | 02:00 | VFR | 300° | 3 kt | 10000 meters | 18° | 64° | 12° | 53° | 68% | 1017 mb | 393 ft | |||
| 01-Sep | 01:30 | VFR | 210° | 4 kt | 10000 meters | 18° | 64° | 14° | 57° | 77% | 1017 mb | 393 ft | |||
| 01-Sep | 01:00 | VFR | 90° | 1 kt | 10000 meters | 18° | 64° | 14° | 57° | 77% | 1017 mb | 393 ft | |||
| 01-Sep | 00:30 | VFR | 100° | 1 kt | 10000 meters | 19° | 66° | 14° | 57° | 73% | 1017 mb | 513 ft | |||
| 01-Sep | 00:00 | VFR | Calm | 10000 meters | 19° | 66° | 12° | 53° | 64% | 1017 mb | 513 ft | ||||
| 31-Aug | 23:30 | VFR | Calm | 10000 meters | 20° | 68° | 12° | 53° | 60% | 1017 mb | 633 ft |
Login
| Your browser is unsupported. upgrade your browser |
